Time;durP1;ratioP1;P1;durP2;ratioP2;P2;SDS_P1;SDS_P2;PMS_P1;PMS_P2;Temp;Humidity;BMP_temperature;BMP_pressure;BME280_temperature;BME280_humidity;BME280_pressure;Samples;Min_cycle;Max_cycle;Signal;HPM_P1;HPM_P2
2024/02/23 00:23:45;;;;;;;14.03;10.97;;;8.60;86.40;;;;;;4654694;29;20328;-85
2024/02/23 00:54:16;;;;;;;10.53;9.43;;;8.60;86.60;;;;;;4593670;30;20231;-84
2024/02/23 01:29:51;;;;;;;11.67;9.90;;;8.30;87.90;;;;;;4682108;29;20228;-84
2024/02/23 01:55:03;;;;;;;10.67;9.63;;;8.20;89.00;;;;;;4690019;29;20215;-85
2024/02/23 02:20:15;;;;;;;9.40;8.50;;;8.50;88.20;;;;;;4640580;30;20287;-86
2024/02/23 02:35:48;;;;;;;8.93;8.00;;;8.60;88.00;;;;;;4580234;30;20290;-86
2024/02/23 02:40:07;;;;;;;9.07;8.17;;;8.60;88.00;;;;;;4581159;30;20716;-83
2024/02/23 03:01:04;;;;;;;7.13;6.43;;;8.80;87.70;;;;;;4654869;29;20339;-84
2024/02/23 03:26:04;;;;;;;6.97;6.27;;;8.90;89.60;;;;;;4674876;29;20572;-84
2024/02/23 03:41:42;;;;;;;6.50;5.90;;;8.60;92.50;;;;;;4608212;30;20267;-85
2024/02/23 04:11:27;;;;;;;7.90;6.57;;;8.10;99.90;;;;;;4561963;30;20241;-84
2024/02/23 04:37:10;;;;;;;7.70;7.00;;;7.90;99.90;;;;;;4612451;30;20262;-84
2024/02/23 06:12:40;;;;;;;6.40;5.77;;;8.00;99.90;;;;;;4462695;31;20327;-85
2024/02/23 06:37:22;;;;;;;7.90;6.13;;;8.00;99.90;;;;;;4465089;31;21315;-81
2024/02/23 06:58:02;;;;;;;7.27;6.53;;;8.20;99.90;;;;;;4480377;30;20227;-82
2024/02/23 07:23:19;;;;;;;8.23;6.47;;;8.30;99.90;;;;;;4571552;30;20250;-84
2024/02/23 07:43:49;;;;;;;8.47;7.30;;;8.40;99.90;;;;;;4555460;30;20232;-84
2024/02/23 08:08:58;;;;;;;11.50;8.17;;;8.60;99.90;;;;;;4525346;30;21056;-84
2024/02/23 09:09:29;;;;;;;10.07;8.03;;;9.20;99.90;;;;;;4503848;30;20524;-86
2024/02/23 10:05:18;;;;;;;8.40;7.17;;;10.20;99.90;;;;;;4531635;30;20645;-85
2024/02/23 11:06:49;;;;;;;8.13;7.33;;;10.30;99.90;;;;;;4552780;30;20509;-84
2024/02/23 11:42:22;;;;;;;12.57;10.37;;;10.20;99.90;;;;;;4653619;30;20243;-87
2024/02/23 12:07:43;;;;;;;12.77;11.27;;;10.40;99.90;;;;;;4624687;30;21354;-86
2024/02/23 12:38:03;;;;;;;14.83;10.50;;;10.70;99.90;;;;;;4713791;29;20632;-87
2024/02/23 12:58:27;;;;;;;11.17;9.97;;;10.70;99.90;;;;;;4588415;30;20713;-86
2024/02/23 13:28:38;;;;;;;12.27;10.97;;;10.70;99.90;;;;;;4582035;30;21366;-84
2024/02/23 13:48:47;;;;;;;13.20;11.00;;;10.60;99.90;;;;;;4609318;30;20485;-86
2024/02/23 14:14:11;;;;;;;14.00;10.90;;;10.30;99.90;;;;;;4631576;29;20242;-84
2024/02/23 14:50:04;;;;;;;14.93;13.30;;;9.90;99.90;;;;;;4624791;30;20739;-84
2024/02/23 15:24:59;;;;;;;18.63;15.80;;;10.00;99.90;;;;;;4665963;30;20285;-86
2024/02/23 15:45:47;;;;;;;20.33;16.37;;;9.80;99.90;;;;;;4673699;30;20497;-83
2024/02/23 16:01:08;;;;;;;22.40;18.87;;;9.70;99.90;;;;;;4638416;30;20784;-84
2024/02/23 16:26:15;;;;;;;27.23;19.10;;;9.30;99.90;;;;;;4727044;29;20854;-87
2024/02/23 16:46:14;;;;;;;28.17;20.13;;;9.10;99.90;;;;;;4720050;30;20406;-88
2024/02/23 17:11:54;;;;;;;30.27;21.43;;;8.90;99.90;;;;;;4678365;30;20291;-87
2024/02/23 17:32:32;;;;;;;33.53;22.27;;;8.70;99.90;;;;;;4761432;29;20596;-89
2024/02/23 17:36:51;;;;;;;30.97;23.13;;;8.80;99.90;;;;;;4750509;29;20643;-89
2024/02/23 17:57:52;;;;;;;42.93;26.77;;;8.70;99.90;;;;;;4770284;29;20193;-87
2024/02/23 18:38:22;;;;;;;45.07;29.63;;;8.90;99.90;;;;;;4745305;30;20289;-86
2024/02/23 19:03:33;;;;;;;68.80;39.40;;;8.60;99.90;;;;;;4757307;29;20429;-86
2024/02/23 19:24:02;;;;;;;88.33;46.57;;;8.50;99.90;;;;;;4642904;30;20485;-86
2024/02/23 19:49:38;;;;;;;89.90;44.70;;;8.60;99.90;;;;;;4614351;30;20685;-86
2024/02/23 19:53:56;;;;;;;95.90;47.27;;;8.70;99.90;;;;;;4624336;30;20481;-87
2024/02/23 20:40:15;;;;;;;111.37;52.33;;;8.90;99.90;;;;;;4673252;30;20306;-87
2024/02/23 21:05:43;;;;;;;158.47;60.93;;;8.80;99.90;;;;;;4690219;30;20299;-89
2024/02/23 21:36:02;;;;;;;125.20;52.97;;;8.70;99.90;;;;;;4769123;29;21126;-86
2024/02/23 22:00:52;;;;;;;111.37;50.73;;;8.50;99.90;;;;;;4685360;30;20432;-88
2024/02/23 22:21:50;;;;;;;88.67;45.27;;;8.50;99.90;;;;;;4749845;29;20213;-86
2024/02/23 22:47:09;;;;;;;101.13;43.43;;;8.10;99.90;;;;;;4729311;29;20513;-86
2024/02/23 23:22:12;;;;;;;93.27;41.20;;;8.20;99.90;;;;;;4631116;30;20701;-86
2024/02/23 23:52:50;;;;;;;78.67;43.60;;;8.10;99.90;;;;;;4581047;30;20671;-86
